Time;durP1;ratioP1;P1;durP2;ratioP2;P2;SDS_P1;SDS_P2;PMS_P1;PMS_P2;Temp;Humidity;BMP_temperature;BMP_pressure;BME280_temperature;BME280_humidity;BME280_pressure;Samples;Min_cycle;Max_cycle;Signal;HPM_P1;HPM_P2
2021/06/23 00:00:33;;;;;;;3.67;1.92;;;;;;;21.93;56.09;92662.44;2071622;69;20218;-74
2021/06/23 00:02:59;;;;;;;4.03;1.80;;;;;;;21.88;57.95;92655.19;2071739;69;20140;-75
2021/06/23 00:05:25;;;;;;;8.63;2.42;;;;;;;21.30;61.12;92661.94;2071547;69;20210;-74
2021/06/23 00:07:52;;;;;;;6.18;2.25;;;;;;;21.45;59.25;92645.81;2071609;69;20188;-74
2021/06/23 00:10:18;;;;;;;5.65;2.20;;;;;;;21.67;57.08;92662.69;2071716;69;20634;-75
2021/06/23 00:12:44;;;;;;;3.40;2.00;;;;;;;22.02;56.10;92664.78;2071374;69;20140;-75
2021/06/23 00:15:13;;;;;;;2.80;1.92;;;;;;;21.30;60.73;92662.69;2071461;69;20176;-75
2021/06/23 00:17:39;;;;;;;3.13;1.83;;;;;;;21.53;58.13;92663.13;2070937;69;20247;-74
2021/06/23 00:20:06;;;;;;;2.72;2.00;;;;;;;21.70;56.21;92661.31;2071396;69;20150;-74
2021/06/23 00:22:32;;;;;;;4.03;2.50;;;;;;;21.33;60.46;92666.34;2070152;69;20545;-74
2021/06/23 00:24:58;;;;;;;3.65;2.20;;;;;;;20.88;60.84;92668.22;2071267;69;20167;-74
2021/06/23 00:27:24;;;;;;;7.75;2.20;;;;;;;21.50;58.61;92667.38;2071448;69;20239;-74
2021/06/23 00:29:51;;;;;;;4.50;2.60;;;;;;;21.28;60.81;92676.94;2071795;69;20673;-74
2021/06/23 00:32:19;;;;;;;6.75;2.85;;;;;;;21.06;61.78;92673.59;2071467;69;20148;-74
2021/06/23 00:34:46;;;;;;;6.50;2.67;;;;;;;21.25;60.40;92675.44;2071681;69;20136;-74
2021/06/23 00:37:12;;;;;;;3.88;2.40;;;;;;;21.16;61.23;92681.69;2071807;69;20137;-74
2021/06/23 00:39:39;;;;;;;5.70;2.22;;;;;;;21.22;60.42;92676.81;2071243;69;20489;-74
2021/06/23 00:42:08;;;;;;;4.57;2.10;;;;;;;21.30;60.09;92679.88;2071534;69;20152;-74
2021/06/23 00:44:34;;;;;;;4.95;1.80;;;;;;;21.37;57.86;92680.00;2068367;69;20151;-74
2021/06/23 00:47:01;;;;;;;6.05;2.20;;;;;;;21.31;59.16;92683.47;2068000;69;20148;-74
2021/06/23 00:49:32;;;;;;;4.10;2.25;;;;;;;21.26;60.28;92679.06;2071222;69;20156;-75
2021/06/23 00:52:17;;;;;;;3.53;2.30;;;;;;;21.31;57.06;92677.75;2071468;69;20135;-74
2021/06/23 00:54:50;;;;;;;4.82;2.42;;;;;;;21.26;60.19;92688.38;2071438;69;20507;-74
2021/06/23 00:57:20;;;;;;;4.68;1.85;;;;;;;21.32;60.05;92679.19;2068024;69;20211;-75
2021/06/23 00:59:51;;;;;;;4.60;2.03;;;;;;;21.49;58.07;92678.13;2071452;69;20532;-74
2021/06/23 01:02:18;;;;;;;4.07;1.88;;;;;;;21.23;58.79;92683.28;2071689;69;20604;-74
2021/06/23 01:04:45;;;;;;;5.95;3.00;;;;;;;20.79;60.85;92684.47;2067544;69;20156;-75
2021/06/23 01:07:13;;;;;;;7.22;2.70;;;;;;;21.00;59.92;92690.66;2071390;69;20148;-74
2021/06/23 01:09:39;;;;;;;4.75;2.42;;;;;;;21.12;58.86;92687.31;2068032;69;20227;-75
2021/06/23 01:12:22;;;;;;;5.80;2.72;;;;;;;21.15;59.02;92678.09;2071237;69;20141;-74
2021/06/23 01:14:52;;;;;;;5.18;2.80;;;;;;;21.18;58.78;92678.88;2071295;69;20245;-74
2021/06/23 01:17:20;;;;;;;5.38;2.60;;;;;;;21.14;59.05;92679.50;2067947;69;20179;-74
2021/06/23 01:19:47;;;;;;;5.93;2.33;;;;;;;21.19;58.72;92680.31;2071203;69;20148;-74
2021/06/23 01:22:16;;;;;;;3.42;2.50;;;;;;;21.01;60.90;92675.66;2071365;69;20251;-74
2021/06/23 01:24:44;;;;;;;3.17;2.25;;;;;;;21.12;59.84;92675.88;2068249;69;20144;-74
2021/06/23 01:27:11;;;;;;;6.82;2.55;;;;;;;21.01;60.67;92680.66;2070871;69;20160;-74
2021/06/23 01:29:37;;;;;;;4.57;2.70;;;;;;;21.08;61.01;92685.13;2068263;69;20623;-74
2021/06/23 01:32:13;;;;;;;3.22;2.40;;;;;;;21.10;60.97;92687.28;2071707;69;20128;-74
2021/06/23 01:34:38;;;;;;;5.90;2.67;;;;;;;21.10;58.19;92679.41;2068113;69;20155;-74
2021/06/23 01:37:05;;;;;;;5.30;2.50;;;;;;;21.05;60.31;92675.75;2071622;69;20236;-74
2021/06/23 01:39:31;;;;;;;5.88;2.42;;;;;;;20.97;59.92;92683.44;2068370;69;20203;-74
2021/06/23 01:41:56;;;;;;;3.65;2.58;;;;;;;21.08;59.22;92682.25;2070993;69;20180;-74
2021/06/23 01:44:22;;;;;;;3.95;2.50;;;;;;;21.00;59.92;92694.25;2071666;69;20156;-74
2021/06/23 01:46:48;;;;;;;4.72;2.28;;;;;;;20.96;59.90;92684.84;2068251;69;20182;-74
2021/06/23 01:49:26;;;;;;;3.25;2.30;;;;;;;20.92;60.39;92685.47;2068102;69;20172;-74
2021/06/23 01:51:53;;;;;;;6.15;2.33;;;;;;;21.03;59.50;92683.56;2068009;69;20156;-74
2021/06/23 01:54:19;;;;;;;4.55;2.58;;;;;;;20.94;59.98;92685.53;2071579;69;20144;-75
2021/06/23 01:56:46;;;;;;;3.75;2.70;;;;;;;20.83;60.05;92677.41;2068237;69;20176;-74
2021/06/23 01:59:12;;;;;;;6.07;2.60;;;;;;;20.61;60.00;92686.91;2068223;69;20152;-75
2021/06/23 02:02:15;;;;;;;2.92;2.40;;;;;;;20.45;61.83;92687.25;2071566;69;20259;-74
2021/06/23 02:05:11;;;;;;;5.00;2.40;;;;;;;20.54;60.21;92688.91;2068198;69;20574;-74
2021/06/23 02:08:11;;;;;;;4.38;2.47;;;;;;;20.79;60.33;92692.31;2071612;69;20268;-75
2021/06/23 02:11:08;;;;;;;7.13;2.60;;;;;;;20.63;61.30;92700.56;2071649;69;20524;-74
2021/06/23 02:13:57;;;;;;;3.03;2.33;;;;;;;20.45;62.25;92704.41;2068205;69;20132;-74
2021/06/23 02:16:49;;;;;;;3.30;2.33;;;;;;;20.45;61.96;92712.97;2067090;69;20535;-74
2021/06/23 02:19:19;;;;;;;2.92;2.13;;;;;;;20.64;60.03;92719.16;2067959;69;20152;-74
2021/06/23 02:22:09;;;;;;;5.07;2.38;;;;;;;20.57;59.27;92709.69;2069241;69;20156;-74
2021/06/23 02:24:35;;;;;;;4.15;2.60;;;;;;;20.31;60.38;92716.22;2067957;69;20547;-74
2021/06/23 02:27:15;;;;;;;3.00;2.50;;;;;;;20.46;60.04;92713.69;2067972;69;20163;-74
2021/06/23 02:29:45;;;;;;;5.35;2.30;;;;;;;20.17;60.08;92724.44;2068070;69;20153;-74
2021/06/23 02:32:14;;;;;;;4.68;2.47;;;;;;;20.43;59.79;92712.19;2071327;69;20144;-74
2021/06/23 02:34:47;;;;;;;4.20;2.60;;;;;;;20.24;61.12;92720.31;2071449;69;20188;-74
2021/06/23 02:37:19;;;;;;;6.75;2.53;;;;;;;20.31;60.66;92715.50;2071538;69;20156;-73
2021/06/23 02:39:47;;;;;;;7.63;2.50;;;;;;;20.41;59.09;92715.72;2071513;69;20132;-74
2021/06/23 02:42:13;;;;;;;4.70;2.40;;;;;;;20.18;61.03;92717.31;2071531;69;20147;-74
2021/06/23 02:44:40;;;;;;;4.72;2.40;;;;;;;20.42;58.78;92713.59;2071485;69;20151;-74
2021/06/23 02:47:08;;;;;;;4.53;2.88;;;;;;;20.14;60.79;92708.63;2068043;69;20140;-74
2021/06/23 02:49:46;;;;;;;5.30;2.78;;;;;;;20.15;61.57;92715.78;2068051;69;20679;-74
2021/06/23 02:52:13;;;;;;;6.05;2.40;;;;;;;20.25;59.54;92706.75;2071432;69;20239;-73
2021/06/23 02:54:40;;;;;;;3.35;2.10;;;;;;;20.02;61.46;92706.19;2068185;69;20171;-74
2021/06/23 02:57:23;;;;;;;4.00;2.15;;;;;;;20.06;60.03;92706.28;2068136;69;20242;-74
2021/06/23 02:59:49;;;;;;;4.55;1.90;;;;;;;19.92;62.32;92711.63;2071499;69;20152;-74
2021/06/23 03:02:16;;;;;;;4.68;2.33;;;;;;;20.04;60.17;92720.53;2068135;69;20141;-74
2021/06/23 03:04:46;;;;;;;4.03;2.08;;;;;;;20.00;61.67;92719.69;2071400;69;20243;-74
2021/06/23 03:07:17;;;;;;;6.30;2.28;;;;;;;19.80;61.49;92722.75;2068099;69;20307;-74
2021/06/23 03:09:48;;;;;;;10.23;3.20;;;;;;;19.36;62.75;92720.06;2071369;69;20476;-75
2021/06/23 03:12:34;;;;;;;9.02;3.38;;;;;;;19.65;61.24;92720.88;2071364;69;20603;-75
2021/06/23 03:15:22;;;;;;;5.75;3.00;;;;;;;19.80;59.70;92717.75;2071472;69;20163;-75
2021/06/23 03:17:53;;;;;;;5.13;2.63;;;;;;;19.87;60.87;92721.50;2068296;69;20148;-75
2021/06/23 03:20:18;;;;;;;4.53;2.72;;;;;;;19.77;61.19;92716.25;2071375;69;20147;-75
2021/06/23 03:22:45;;;;;;;4.25;2.83;;;;;;;19.77;60.20;92715.50;2071477;69;20626;-75
2021/06/23 03:25:12;;;;;;;5.20;2.40;;;;;;;19.89;59.28;92727.28;2071450;69;20128;-75
2021/06/23 03:27:38;;;;;;;5.15;2.50;;;;;;;19.91;59.92;92727.31;2070951;69;20151;-75
2021/06/23 03:30:05;;;;;;;3.35;2.50;;;;;;;19.77;61.41;92712.66;2068110;69;20209;-75
2021/06/23 03:32:31;;;;;;;2.88;2.35;;;;;;;20.00;59.29;92723.28;2071608;69;20141;-74
2021/06/23 03:34:57;;;;;;;4.90;2.85;;;;;;;19.98;61.19;92725.38;2068001;69;20159;-75
2021/06/23 03:37:23;;;;;;;6.40;3.47;;;;;;;19.64;61.12;92719.44;2071442;69;20156;-74
2021/06/23 03:39:49;;;;;;;5.78;3.33;;;;;;;19.63;61.47;92729.41;2071678;69;20132;-72
2021/06/23 03:42:14;;;;;;;7.47;3.00;;;;;;;19.62;60.49;92728.69;2071938;69;20489;-74
2021/06/23 03:44:42;;;;;;;7.43;3.25;;;;;;;19.74;62.29;92734.00;2071958;69;20157;-74
2021/06/23 03:47:08;;;;;;;9.63;3.13;;;;;;;19.72;61.33;92737.53;2072004;69;20168;-75
2021/06/23 03:49:36;;;;;;;6.45;3.30;;;;;;;19.77;62.30;92741.94;2068497;69;20144;-75
2021/06/23 03:52:03;;;;;;;6.18;3.20;;;;;;;19.79;61.28;92735.56;2068605;69;20160;-74
2021/06/23 03:54:29;;;;;;;5.43;3.05;;;;;;;19.90;58.89;92745.13;2072012;69;20257;-75
2021/06/23 03:56:57;;;;;;;7.63;3.53;;;;;;;19.95;61.46;92756.00;2072116;69;20568;-75
2021/06/23 03:59:23;;;;;;;4.10;2.75;;;;;;;19.86;61.68;92742.91;2072150;69;20144;-75
2021/06/23 04:01:51;;;;;;;5.10;2.80;;;;;;;19.94;61.38;92751.69;2068619;69;20307;-75
2021/06/23 04:04:18;;;;;;;6.70;3.25;;;;;;;20.04;61.54;92751.22;2068665;69;20536;-75
2021/06/23 04:06:46;;;;;;;5.32;3.13;;;;;;;20.17;59.74;92758.00;2072020;69;20148;-74
2021/06/23 04:09:15;;;;;;;6.18;3.45;;;;;;;20.23;59.07;92755.28;2068643;69;20171;-75
2021/06/23 04:11:47;;;;;;;6.13;3.55;;;;;;;20.20;59.28;92748.78;2071988;69;20132;-74
2021/06/23 04:14:13;;;;;;;6.85;3.63;;;;;;;20.16;59.07;92747.94;2071950;69;20147;-75
2021/06/23 04:16:39;;;;;;;7.43;3.40;;;;;;;19.92;60.94;92750.91;2068615;69;20148;-75
2021/06/23 04:19:05;;;;;;;6.95;3.10;;;;;;;20.22;58.23;92750.97;2068496;69;20159;-75
2021/06/23 04:21:36;;;;;;;6.22;3.53;;;;;;;19.82;61.42;92750.63;2068565;69;20268;-72
2021/06/23 04:24:07;;;;;;;7.47;3.35;;;;;;;19.93;60.17;92746.63;2068719;69;20144;-73
2021/06/23 04:26:39;;;;;;;8.13;3.35;;;;;;;20.05;60.78;92747.69;2068628;69;20148;-73
2021/06/23 04:29:06;;;;;;;7.45;3.25;;;;;;;20.00;59.81;92753.97;2068549;69;20608;-74
2021/06/23 04:31:32;;;;;;;5.43;3.28;;;;;;;19.99;61.50;92752.53;2068597;69;20202;-73
2021/06/23 04:33:58;;;;;;;4.78;2.97;;;;;;;20.25;59.75;92753.22;2068529;69;20535;-73
2021/06/23 04:36:24;;;;;;;6.43;3.25;;;;;;;20.21;61.46;92755.97;2071786;69;20235;-74
2021/06/23 04:38:50;;;;;;;10.07;3.25;;;;;;;20.09;61.88;92760.63;2068499;69;20152;-74
2021/06/23 04:41:16;;;;;;;10.13;3.38;;;;;;;20.32;60.63;92759.81;2068577;69;20152;-74
2021/06/23 04:43:42;;;;;;;8.18;3.35;;;;;;;20.28;60.42;92756.84;2068513;69;20164;-74
2021/06/23 04:46:09;;;;;;;8.13;3.15;;;;;;;20.29;59.40;92766.88;2068513;69;20532;-74
2021/06/23 04:48:36;;;;;;;7.70;3.40;;;;;;;20.30;60.88;92766.22;2068535;69;20172;-74
2021/06/23 04:51:05;;;;;;;4.53;2.92;;;;;;;20.23;59.74;92766.72;2068299;69;20286;-74
2021/06/23 04:53:32;;;;;;;6.35;3.00;;;;;;;20.38;58.46;92765.69;2068499;69;20669;-74
2021/06/23 04:55:59;;;;;;;6.03;3.22;;;;;;;20.43;58.32;92767.22;2068508;69;20155;-73
2021/06/23 04:58:33;;;;;;;3.97;2.85;;;;;;;20.48;57.01;92768.84;2068427;69;20187;-74
2021/06/23 05:01:06;;;;;;;7.85;3.05;;;;;;;20.49;58.73;92767.44;2068592;69;20151;-74
2021/06/23 05:03:41;;;;;;;4.82;3.28;;;;;;;20.47;58.99;92773.09;2068542;69;20534;-74
2021/06/23 05:06:08;;;;;;;6.63;3.58;;;;;;;20.35;58.71;92778.47;2068392;69;20201;-73
2021/06/23 05:08:34;;;;;;;7.78;3.67;;;;;;;20.45;59.07;92781.59;2072019;69;20144;-74
2021/06/23 05:11:00;;;;;;;5.93;3.05;;;;;;;20.37;61.55;92777.78;2071818;69;20213;-74
2021/06/23 05:13:26;;;;;;;5.32;3.10;;;;;;;20.41;61.38;92777.91;2071874;69;20516;-74
2021/06/23 05:15:52;;;;;;;6.20;3.10;;;;;;;20.39;61.58;92777.84;2071784;69;20205;-73
2021/06/23 05:18:18;;;;;;;6.57;3.20;;;;;;;20.38;61.36;92784.97;2071781;69;20180;-73
2021/06/23 05:20:44;;;;;;;6.10;2.90;;;;;;;20.44;61.15;92785.13;2071631;69;20152;-73
2021/06/23 05:23:10;;;;;;;8.52;3.30;;;;;;;20.60;60.28;92781.97;2071884;69;20653;-73
2021/06/23 05:25:36;;;;;;;9.55;3.67;;;;;;;20.63;60.02;92789.94;2071892;69;20152;-74
2021/06/23 05:28:02;;;;;;;6.38;3.78;;;;;;;20.86;57.56;92785.47;2071775;69;20155;-74
2021/06/23 05:30:28;;;;;;;6.07;3.70;;;;;;;20.77;59.08;92784.56;2071808;69;20193;-74
2021/06/23 05:32:54;;;;;;;6.38;3.47;;;;;;;21.06;58.05;92793.81;2068402;69;20154;-74
2021/06/23 05:35:20;;;;;;;5.80;3.33;;;;;;;21.08;56.26;92796.00;2071678;69;20140;-74
2021/06/23 05:37:46;;;;;;;8.45;3.40;;;;;;;21.29;58.24;92798.63;2071751;69;20160;-74
2021/06/23 05:40:13;;;;;;;5.60;3.55;;;;;;;20.64;61.13;92804.97;2071868;69;20143;-74
2021/06/23 05:42:39;;;;;;;7.65;3.38;;;;;;;21.28;56.62;92805.78;2071713;69;20172;-73
2021/06/23 05:45:06;;;;;;;8.00;3.50;;;;;;;21.53;56.62;92806.34;2071745;69;20244;-73
2021/06/23 05:47:32;;;;;;;4.20;3.28;;;;;;;21.72;55.73;92807.47;2071729;69;20135;-74
2021/06/23 05:49:57;;;;;;;4.68;2.70;;;;;;;21.26;58.54;92811.47;2071624;69;20151;-73
2021/06/23 05:52:23;;;;;;;4.50;2.63;;;;;;;20.88;59.90;92805.56;2071757;69;20247;-74
2021/06/23 05:54:48;;;;;;;5.70;2.70;;;;;;;21.05;59.66;92821.72;2071826;69;20614;-74
2021/06/23 05:57:14;;;;;;;7.32;2.50;;;;;;;21.33;58.44;92815.22;2071823;69;20140;-74
2021/06/23 05:59:40;;;;;;;5.53;2.17;;;;;;;21.29;56.55;92818.69;2071691;69;20151;-74
2021/06/23 06:02:05;;;;;;;7.75;2.38;;;;;;;21.84;54.43;92813.44;2071637;69;20152;-75
2021/06/23 06:04:31;;;;;;;6.00;2.20;;;;;;;21.95;54.22;92820.13;2071604;69;20148;-75
2021/06/23 06:06:56;;;;;;;3.83;2.63;;;;;;;22.00;54.67;92810.19;2071699;69;20144;-75
2021/06/23 06:09:22;;;;;;;6.53;2.45;;;;;;;22.06;55.75;92816.78;2071716;69;20175;-75
2021/06/23 06:11:48;;;;;;;4.20;2.40;;;;;;;22.13;53.60;92828.38;2071749;69;20171;-75
2021/06/23 06:14:13;;;;;;;4.25;2.25;;;;;;;22.18;54.42;92824.19;2071631;69;20205;-75
2021/06/23 06:16:39;;;;;;;2.85;2.35;;;;;;;22.04;53.81;92819.59;2071632;69;20179;-75
2021/06/23 06:19:04;;;;;;;5.65;2.67;;;;;;;22.14;54.06;92829.84;2071641;69;20171;-75
2021/06/23 06:21:30;;;;;;;4.47;2.97;;;;;;;21.93;55.54;92829.41;2071698;69;20149;-75
2021/06/23 06:23:57;;;;;;;3.10;2.00;;;;;;;22.42;54.30;92832.53;2071590;69;20148;-75
2021/06/23 06:26:23;;;;;;;7.18;2.40;;;;;;;22.44;52.76;92824.69;2071692;69;20152;-75
2021/06/23 06:28:48;;;;;;;3.15;2.35;;;;;;;22.65;52.04;92828.66;2071616;69;20175;-74
2021/06/23 06:31:14;;;;;;;3.70;2.25;;;;;;;22.67;53.46;92820.06;2071585;69;20523;-75
2021/06/23 06:33:40;;;;;;;5.18;2.33;;;;;;;22.74;52.01;92827.38;2071718;69;20151;-75
2021/06/23 06:36:05;;;;;;;3.90;2.22;;;;;;;22.81;52.94;92816.72;2071521;69;20187;-75
2021/06/23 06:38:31;;;;;;;3.10;1.90;;;;;;;22.25;54.22;92817.88;2071743;69;20588;-77
2021/06/23 06:40:57;;;;;;;2.75;1.88;;;;;;;22.60;54.07;92823.53;2071631;69;20227;-76
2021/06/23 06:43:22;;;;;;;2.05;1.70;;;;;;;22.31;53.68;92825.88;2071645;69;20602;-76
2021/06/23 06:45:51;;;;;;;4.07;2.00;;;;;;;21.93;55.04;92817.94;2068235;69;20241;-75
2021/06/23 06:48:19;;;;;;;4.28;2.10;;;;;;;21.96;54.36;92812.97;2071563;69;20148;-74
2021/06/23 06:50:45;;;;;;;2.85;1.67;;;;;;;22.30;55.08;92815.81;2071422;69;20619;-75
2021/06/23 06:53:11;;;;;;;5.13;2.08;;;;;;;22.40;52.93;92813.13;2071405;69;20156;-75
2021/06/23 06:55:36;;;;;;;3.67;1.70;;;;;;;22.60;54.04;92815.66;2071465;69;20154;-75
2021/06/23 06:58:02;;;;;;;3.38;1.90;;;;;;;22.27;54.14;92808.59;2071672;69;20570;-75
2021/06/23 07:00:28;;;;;;;2.65;1.88;;;;;;;22.61;54.13;92808.50;2071520;69;20195;-74
2021/06/23 07:02:54;;;;;;;2.13;1.80;;;;;;;22.87;52.67;92798.91;2071490;69;20678;-75
2021/06/23 07:05:23;;;;;;;2.85;2.22;;;;;;;22.55;53.32;92802.66;2071402;69;20132;-75
2021/06/23 07:07:49;;;;;;;2.20;2.00;;;;;;;21.90;55.13;92813.59;2071645;69;20691;-74
2021/06/23 07:10:16;;;;;;;3.50;2.05;;;;;;;22.45;53.55;92806.06;2071620;69;20754;-75
2021/06/23 07:12:42;;;;;;;3.50;2.15;;;;;;;22.33;53.86;92809.44;2071536;69;20148;-73
2021/06/23 07:15:08;;;;;;;3.65;1.92;;;;;;;22.62;53.06;92806.34;2071781;69;20141;-75
2021/06/23 07:17:34;;;;;;;9.68;2.08;;;;;;;22.98;52.90;92801.25;2072112;69;20262;-74
2021/06/23 07:20:00;;;;;;;3.70;2.10;;;;;;;23.11;52.58;92801.47;2071787;69;20243;-74
2021/06/23 07:22:26;;;;;;;2.00;1.75;;;;;;;22.79;52.71;92803.06;2071857;69;20175;-74
2021/06/23 07:24:52;;;;;;;2.58;2.00;;;;;;;22.78;53.64;92798.75;2071891;69;20257;-74
2021/06/23 07:27:18;;;;;;;2.50;2.30;;;;;;;22.35;53.35;92796.53;2071811;69;20234;-76
2021/06/23 07:29:43;;;;;;;3.83;2.03;;;;;;;22.75;52.54;92790.81;2071851;69;20585;-74
2021/06/23 07:32:33;;;;;;;5.00;2.15;;;;;;;22.84;52.35;92786.66;2068513;69;20144;-74
2021/06/23 07:37:39;;;;;;;3.17;1.95;;;;;;;22.90;51.51;92783.91;2068566;69;20599;-73
2021/06/23 07:40:06;;;;;;;4.35;1.90;;;;;;;22.51;53.02;92785.38;2072021;69;20151;-74
2021/06/23 07:42:31;;;;;;;3.42;1.77;;;;;;;22.84;51.58;92780.91;2071875;69;20519;-74
2021/06/23 07:45:03;;;;;;;2.30;2.10;;;;;;;22.34;52.91;92775.75;2071910;69;20140;-73
2021/06/23 07:47:32;;;;;;;3.90;2.25;;;;;;;22.43;52.19;92774.47;2072095;69;20153;-73
2021/06/23 07:49:58;;;;;;;2.95;2.20;;;;;;;22.92;51.64;92772.47;2071773;69;20168;-75
2021/06/23 08:10:39;;;;;;;2.88;1.80;;;;;;;23.81;49.70;92758.66;2071948;69;20131;-73
2021/06/23 08:13:05;;;;;;;7.72;2.00;;;;;;;24.04;48.14;92756.06;2071889;69;20144;-74
2021/06/23 08:15:33;;;;;;;4.88;2.10;;;;;;;24.08;47.06;92747.47;2071889;69;20258;-74
2021/06/23 08:17:59;;;;;;;5.22;2.00;;;;;;;24.37;47.82;92750.69;2071838;69;20244;-74
2021/06/23 08:20:26;;;;;;;5.30;2.22;;;;;;;24.67;47.35;92747.38;2071965;69;20592;-74
2021/06/23 08:22:52;;;;;;;2.28;1.77;;;;;;;24.78;47.25;92740.97;2071847;69;20616;-74
2021/06/23 08:25:18;;;;;;;3.78;1.90;;;;;;;25.22;49.26;92744.94;2071828;69;20149;-74
2021/06/23 08:27:43;;;;;;;2.38;1.95;;;;;;;25.53;46.05;92743.00;2072001;69;20231;-74
2021/06/23 08:30:10;;;;;;;2.92;1.95;;;;;;;25.95;46.34;92741.78;2071895;69;20192;-74
2021/06/23 08:32:40;;;;;;;4.38;2.00;;;;;;;26.15;45.53;92741.13;2071970;69;20152;-74
2021/06/23 08:35:06;;;;;;;6.25;2.10;;;;;;;26.40;42.56;92733.97;2071868;69;20155;-74
2021/06/23 08:37:32;;;;;;;3.40;1.90;;;;;;;26.52;41.10;92731.13;2071920;69;20229;-74
2021/06/23 08:39:58;;;;;;;2.97;1.90;;;;;;;27.53;42.38;92729.69;2071897;69;20148;-74
2021/06/23 08:42:24;;;;;;;5.50;1.90;;;;;;;27.48;41.48;92719.56;2071974;69;20164;-74
2021/06/23 08:44:50;;;;;;;2.67;1.85;;;;;;;27.80;40.11;92721.69;2071878;69;20148;-74
2021/06/23 08:47:16;;;;;;;5.82;2.30;;;;;;;27.95;39.06;92721.63;2068522;69;20152;-74
2021/06/23 08:49:44;;;;;;;3.10;1.92;;;;;;;28.34;41.24;92716.38;2071898;69;20155;-75
2021/06/23 08:52:13;;;;;;;3.58;1.85;;;;;;;28.68;39.44;92717.66;2068460;69;20140;-74
2021/06/23 08:54:41;;;;;;;2.25;1.63;;;;;;;28.63;37.27;92716.94;2071910;69;20313;-74
2021/06/23 08:57:09;;;;;;;5.85;2.00;;;;;;;29.31;38.34;92709.19;2071876;69;20156;-75
2021/06/23 08:59:40;;;;;;;5.68;1.85;;;;;;;29.63;38.04;92711.06;2071974;69;20605;-76
2021/06/23 09:02:11;;;;;;;3.08;1.80;;;;;;;29.86;38.52;92705.75;2071998;69;20148;-76
2021/06/23 09:04:54;;;;;;;4.15;1.80;;;;;;;30.07;38.26;92696.81;2071885;69;20141;-76
2021/06/23 09:07:42;;;;;;;4.35;1.88;;;;;;;29.40;35.27;92697.53;2071830;69;20775;-73
2021/06/23 09:10:23;;;;;;;6.80;1.75;;;;;;;30.13;35.83;92690.91;2071879;69;20294;-73
2021/06/23 09:13:01;;;;;;;5.82;2.13;;;;;;;30.77;34.88;92700.22;2071790;69;20174;-73
2021/06/23 09:15:44;;;;;;;4.40;1.88;;;;;;;31.01;33.52;92696.22;2071848;69;20235;-73
2021/06/23 09:18:14;;;;;;;5.15;1.90;;;;;;;31.29;34.27;92703.78;2071844;69;20594;-73
2021/06/23 09:20:41;;;;;;;3.38;1.70;;;;;;;29.86;32.97;92685.44;2071692;69;20289;-73
2021/06/23 09:23:07;;;;;;;3.65;1.63;;;;;;;30.34;32.67;92689.22;2071827;69;20136;-74
2021/06/23 09:25:35;;;;;;;4.32;1.60;;;;;;;30.04;32.63;92675.78;2071836;69;20524;-74
2021/06/23 09:28:03;;;;;;;4.07;1.60;;;;;;;30.09;32.51;92673.53;2071791;69;20255;-74
2021/06/23 09:30:38;;;;;;;3.65;1.67;;;;;;;30.13;33.93;92676.41;2071821;69;20663;-74
2021/06/23 09:33:22;;;;;;;3.78;1.60;;;;;;;30.28;31.88;92674.03;2071896;69;20137;-74
2021/06/23 09:35:57;;;;;;;2.70;1.63;;;;;;;31.08;31.80;92673.59;2071669;69;20145;-74
2021/06/23 09:38:39;;;;;;;4.93;1.75;;;;;;;31.54;30.41;92660.44;2071665;69;20149;-74
2021/06/23 09:41:22;;;;;;;5.70;1.70;;;;;;;30.97;30.26;92666.50;2071752;69;20581;-74
2021/06/23 09:43:51;;;;;;;6.82;1.60;;;;;;;31.39;31.28;92665.09;2071787;69;20137;-73
2021/06/23 09:46:22;;;;;;;3.35;1.52;;;;;;;30.41;31.52;92669.50;2071729;69;20666;-74
2021/06/23 09:48:50;;;;;;;2.95;1.40;;;;;;;31.30;31.61;92663.81;2071841;69;20144;-74
2021/06/23 09:51:19;;;;;;;3.83;1.50;;;;;;;29.87;31.07;92657.13;2071571;69;20243;-73
2021/06/23 09:53:45;;;;;;;4.18;1.90;;;;;;;30.77;29.51;92653.75;2071732;69;20233;-73
2021/06/23 09:56:40;;;;;;;3.25;1.58;;;;;;;31.73;30.75;92640.44;2071749;69;20574;-74
2021/06/23 09:59:07;;;;;;;5.15;1.60;;;;;;;31.69;29.79;92636.88;2071769;69;20524;-73
2021/06/23 10:01:40;;;;;;;3.95;1.50;;;;;;;30.50;30.95;92635.25;2071653;69;20144;-73
2021/06/23 10:04:10;;;;;;;3.72;1.33;;;;;;;31.68;30.46;92633.28;2068441;69;20159;-73
2021/06/23 10:06:45;;;;;;;4.43;1.45;;;;;;;31.93;28.18;92642.25;2071746;69;20524;-74
2021/06/23 10:09:31;;;;;;;8.00;1.85;;;;;;;32.12;27.12;92636.78;2071751;69;20209;-74
2021/06/23 10:12:07;;;;;;;3.10;1.60;;;;;;;31.94;27.85;92632.06;2071864;69;20547;-74
2021/06/23 10:14:41;;;;;;;5.18;1.70;;;;;;;31.60;28.01;92618.88;2071713;69;20140;-74
2021/06/23 10:17:08;;;;;;;6.05;1.70;;;;;;;31.82;27.84;92615.53;2071750;69;20190;-73
2021/06/23 10:19:34;;;;;;;4.28;1.50;;;;;;;32.12;28.64;92605.47;2071617;69;20149;-74
2021/06/23 10:22:01;;;;;;;5.22;1.77;;;;;;;32.54;27.66;92611.09;2071647;69;20285;-74
2021/06/23 10:24:28;;;;;;;4.40;1.65;;;;;;;32.54;27.40;92608.19;2071716;69;20172;-75
2021/06/23 10:26:56;;;;;;;3.67;1.50;;;;;;;32.59;27.52;92615.34;2069941;69;20156;-74
2021/06/23 10:29:33;;;;;;;6.03;1.75;;;;;;;33.37;26.37;92611.25;2070596;69;20171;-74
2021/06/23 10:31:59;;;;;;;3.88;1.50;;;;;;;33.83;25.56;92611.47;2070459;69;20176;-74
2021/06/23 10:34:26;;;;;;;2.67;1.52;;;;;;;34.13;25.85;92604.78;2067601;69;20152;-74
2021/06/23 10:36:53;;;;;;;3.33;1.40;;;;;;;34.23;25.59;92603.06;2070918;69;20144;-74
2021/06/23 10:39:21;;;;;;;2.72;1.58;;;;;;;33.56;24.81;92599.81;2071287;69;20511;-73
2021/06/23 10:41:50;;;;;;;3.35;1.30;;;;;;;34.63;25.42;92598.88;2069774;69;20286;-74
2021/06/23 10:44:28;;;;;;;4.47;1.45;;;;;;;33.15;25.10;92597.97;2067344;69;20204;-73
2021/06/23 10:46:59;;;;;;;4.10;1.45;;;;;;;34.49;25.85;92592.78;2071080;69;20611;-74
2021/06/23 10:49:40;;;;;;;3.10;1.20;;;;;;;34.64;23.51;92593.78;2071300;69;20530;-74
2021/06/23 10:52:21;;;;;;;3.20;1.38;;;;;;;33.81;24.59;92591.78;2071458;69;20160;-75
2021/06/23 10:54:46;;;;;;;3.45;1.55;;;;;;;34.87;23.97;92582.78;2068140;69;20210;-75
2021/06/23 10:57:22;;;;;;;3.47;1.40;;;;;;;36.08;22.78;92599.13;2071534;69;20136;-75
2021/06/23 10:59:48;;;;;;;3.28;1.42;;;;;;;35.54;23.06;92576.88;2071512;69;20583;-74
2021/06/23 11:02:15;;;;;;;3.30;1.23;;;;;;;36.83;21.26;92572.03;2071450;69;20237;-74
2021/06/23 11:05:02;;;;;;;3.55;1.52;;;;;;;36.15;20.96;92576.88;2071342;69;20216;-74
2021/06/23 11:07:36;;;;;;;3.28;1.50;;;;;;;38.41;20.70;92563.75;2071310;69;20148;-74
2021/06/23 11:10:11;;;;;;;2.33;1.30;;;;;;;39.23;19.36;92571.63;2071504;69;20172;-74
2021/06/23 11:12:43;;;;;;;5.05;1.33;;;;;;;38.33;18.57;92576.59;2070892;69;20159;-74
2021/06/23 11:15:12;;;;;;;3.35;1.40;;;;;;;40.54;18.31;92565.53;2071388;69;20136;-74
2021/06/23 11:17:38;;;;;;;3.28;1.30;;;;;;;43.09;16.43;92573.94;2070927;69;20120;-73
2021/06/23 11:20:25;;;;;;;5.60;1.58;;;;;;;44.09;15.88;92564.31;2071218;69;20132;-75
2021/06/23 11:22:52;;;;;;;2.30;1.17;;;;;;;45.94;15.48;92567.25;2071105;69;20207;-76
2021/06/23 11:25:25;;;;;;;6.10;1.42;;;;;;;46.05;13.94;92568.59;2071018;69;20737;-74
2021/06/23 11:28:12;;;;;;;2.65;1.30;;;;;;;44.06;16.36;92554.84;2071024;69;20182;-73
2021/06/23 11:31:06;;;;;;;1.70;1.10;;;;;;;44.93;15.19;92558.41;2071009;69;20255;-76
2021/06/23 11:33:38;;;;;;;2.78;1.20;;;;;;;44.30;15.55;92563.59;2071019;69;20233;-73
2021/06/23 11:36:14;;;;;;;3.30;1.30;;;;;;;41.79;17.24;92538.44;2070903;69;20144;-73
2021/06/23 11:38:40;;;;;;;2.28;1.27;;;;;;;43.80;16.11;92542.53;2071439;69;20172;-74
2021/06/23 11:41:08;;;;;;;4.75;1.40;;;;;;;42.20;17.03;92535.91;2071304;69;20167;-74
2021/06/23 11:43:34;;;;;;;2.63;1.30;;;;;;;43.19;15.97;92537.03;2070805;69;20141;-73
2021/06/23 11:46:00;;;;;;;3.28;1.30;;;;;;;38.21;19.34;92526.47;2071120;69;20144;-74
2021/06/23 11:48:26;;;;;;;3.85;1.38;;;;;;;37.73;20.17;92513.19;2071244;69;20239;-74
2021/06/23 11:50:53;;;;;;;3.67;1.50;;;;;;;37.64;20.82;92520.97;2071076;69;20235;-74
2021/06/23 11:53:20;;;;;;;5.28;1.67;;;;;;;36.25;22.25;92508.41;2071332;69;20218;-73
2021/06/23 11:55:47;;;;;;;6.00;1.65;;;;;;;39.80;19.25;92515.69;2071226;69;20139;-74
2021/06/23 11:58:13;;;;;;;4.63;1.60;;;;;;;36.60;22.13;92514.31;2071308;69;20129;-74
2021/06/23 12:00:40;;;;;;;5.93;1.58;;;;;;;35.22;22.83;92510.69;2071533;69;20225;-73
2021/06/23 12:03:07;;;;;;;2.50;1.38;;;;;;;34.70;23.20;92508.78;2071847;69;20136;-73
2021/06/23 12:05:34;;;;;;;6.30;1.70;;;;;;;34.63;23.09;92510.47;2071738;69;20589;-73